CZ-0033 weather

Hospital Heliport
Hořovice, Central Bohemian Region, Czechia

Public forecast

Using degrees Celsius for public forecast. Weather courtesy of forecast.io.

METAR (pilot weather report)

Closest report is Václav Havel Airport Prague, 20.5 nm (38.0 km) NE. Retrieved 2019/01/17 17:00 UTC (15 minutes ago):

LKPR 171700Z 23014KT 9999 BKN023 06/02 Q1003 NOSIG

TAF (pilot weather forecast)

Closest forecast is Václav Havel Airport Prague, 20.5 nm (38.0 km) NE. Retrieved 2019/01/17 12:16 UTC (5 hours ago):

TAF LKPR 171100Z 1712/1818 23014KT 9999 BKN025 TEMPO 1716/1722 RA BKN017 TEMPO 1718/1800 24018G32KT BECMG 1801/1803 29012KT SCT025 PROB30 TEMPO 1803/1812 31016G28KT 4000 SN BKN017 BECMG 1816/1818 25004KT